createdAt,value
2022-09-26T00:01:07.199Z,16.37
2022-09-26T00:08:09.671Z,16.36
2022-09-26T00:15:11.331Z,16.26
2022-09-26T00:22:12.866Z,16.23
2022-09-26T00:29:14.624Z,16.16
2022-09-26T00:36:16.447Z,16.09
2022-09-26T00:43:34.827Z,16.04
2022-09-26T00:50:37.799Z,16.05
2022-09-26T00:57:48.003Z,15.96
2022-09-26T01:04:49.607Z,15.91
2022-09-26T01:11:51.191Z,15.87
2022-09-26T01:18:55.241Z,15.81
2022-09-26T01:26:30.719Z,15.77
2022-09-26T01:33:59.491Z,15.67
2022-09-26T01:41:33.885Z,15.73
2022-09-26T01:48:40.093Z,15.68
2022-09-26T01:55:47.294Z,15.66
2022-09-26T02:02:49.442Z,15.63
2022-09-26T02:09:53.364Z,15.68
2022-09-26T02:16:57.048Z,15.68
2022-09-26T02:23:58.643Z,15.68
2022-09-26T02:31:01.219Z,15.65
2022-09-26T02:38:05.684Z,15.63
2022-09-26T02:45:45.429Z,15.58
2022-09-26T02:53:11.438Z,15.57
2022-09-26T03:00:25.121Z,15.54
2022-09-26T03:07:30.849Z,15.58
2022-09-26T03:14:32.645Z,15.52
2022-09-26T03:21:36.968Z,15.49
2022-09-26T03:28:40.026Z,15.46
2022-09-26T03:35:43.411Z,15.46
2022-09-26T03:42:46.714Z,15.45
2022-09-26T03:49:48.415Z,15.35
2022-09-26T03:56:50.620Z,15.36
2022-09-26T04:03:52.535Z,15.33
2022-09-26T04:11:03.245Z,15.26
2022-09-26T04:18:05.235Z,15.31
2022-09-26T04:25:07.212Z,15.19
2022-09-26T04:32:09.404Z,15.16
2022-09-26T04:39:26.294Z,15.16
2022-09-26T04:46:30.919Z,15.11
2022-09-26T04:53:34.994Z,15.09
2022-09-26T05:00:50.419Z,15.05
2022-09-26T05:08:02.683Z,15.09
2022-09-26T05:15:08.605Z,15.01
2022-09-26T05:22:10.652Z,14.94
2022-09-26T05:29:13.059Z,14.79
2022-09-26T05:36:21.503Z,14.78
2022-09-26T05:43:24.569Z,14.65
2022-09-26T05:50:27.147Z,14.65
2022-09-26T05:57:28.865Z,14.65
2022-09-26T06:04:31.592Z,14.69
2022-09-26T06:12:08.427Z,14.73
2022-09-26T06:19:10.145Z,14.80
2022-09-26T06:26:23.658Z,14.77
2022-09-26T06:33:27.709Z,14.85
2022-09-26T06:40:35.989Z,14.93
2022-09-26T06:47:37.647Z,15.14
2022-09-26T06:54:57.853Z,15.03
2022-09-26T07:02:01.127Z,15.23
2022-09-26T07:09:32.117Z,15.57
2022-09-26T07:16:51.949Z,15.74
2022-09-26T07:24:17.614Z,16.19
2022-09-26T07:31:20.239Z,16.55
2022-09-26T07:38:43.775Z,16.87
2022-09-26T07:46:04.090Z,17.30
2022-09-26T07:53:05.824Z,17.53
2022-09-26T08:00:09.527Z,17.62
2022-09-26T08:07:24.565Z,17.98
2022-09-26T08:14:39.776Z,18.18
2022-09-26T08:22:08.434Z,18.64
2022-09-26T08:29:11.209Z,18.88
2022-09-26T08:36:14.074Z,19.30
2022-09-26T08:43:49.699Z,19.58
2022-09-26T08:50:51.873Z,20.03
2022-09-26T08:58:18.014Z,20.51
2022-09-26T09:05:22.450Z,21.42
2022-09-26T09:13:00.201Z,20.68
2022-09-26T09:20:43.423Z,20.70
2022-09-26T09:28:15.693Z,21.04
2022-09-26T09:35:19.327Z,21.51
2022-09-26T09:42:51.890Z,21.57
2022-09-26T09:49:53.471Z,22.52
2022-09-26T09:57:28.889Z,22.72
2022-09-26T10:04:35.801Z,22.59
2022-09-26T10:11:41.883Z,23.56
2022-09-26T10:19:10.284Z,24.00
2022-09-26T10:26:12.149Z,24.15
2022-09-26T10:33:28.950Z,24.60
2022-09-26T15:10:41.849Z,19.70
2022-09-26T15:17:49.564Z,20.03
2022-09-26T15:24:55.300Z,20.17
2022-09-26T15:31:57.583Z,20.18
2022-09-26T15:38:59.368Z,20.22
2022-09-26T15:46:07.235Z,20.18
2022-09-26T15:53:20.961Z,20.13
2022-09-26T16:00:22.623Z,20.04
2022-09-26T16:07:26.492Z,19.97
2022-09-26T16:14:50.502Z,19.86
2022-09-26T16:21:55.820Z,19.78
2022-09-26T16:28:58.596Z,19.69
2022-09-26T16:36:22.154Z,19.41
2022-09-26T16:43:29.315Z,19.31
2022-09-26T16:50:33.125Z,19.17
2022-09-26T16:57:39.712Z,19.04
2022-09-26T17:04:41.280Z,18.92
2022-09-26T17:11:47.233Z,18.76
2022-09-26T17:18:48.803Z,18.70
2022-09-26T17:25:53.065Z,18.62
2022-09-26T17:32:55.826Z,18.52
2022-09-26T17:39:57.664Z,18.34
2022-09-26T17:46:59.973Z,18.31
2022-09-26T17:54:01.707Z,18.15
2022-09-26T18:01:04.302Z,18.05
2022-09-26T18:08:11.620Z,18.10
2022-09-26T18:15:16.064Z,17.92
2022-09-26T18:22:18.714Z,17.82
2022-09-26T18:29:29.764Z,17.75
2022-09-26T18:36:33.165Z,17.61
2022-09-26T18:43:41.234Z,17.55
2022-09-26T18:50:43.351Z,17.43
2022-09-26T18:58:03.628Z,17.39
2022-09-26T19:05:05.816Z,17.32
2022-09-26T19:12:09.876Z,17.39
2022-09-26T19:19:11.780Z,17.39
2022-09-26T19:26:34.984Z,17.28
2022-09-26T19:33:37.959Z,17.16
2022-09-26T19:40:39.853Z,17.15
2022-09-26T19:47:45.006Z,17.11
2022-09-26T19:54:46.700Z,17.00
2022-09-26T20:01:48.481Z,16.90
2022-09-26T20:08:51.075Z,16.85
2022-09-26T20:15:52.729Z,16.79
2022-09-26T20:22:54.432Z,16.75
2022-09-26T20:30:14.626Z,16.73
2022-09-26T20:37:16.310Z,16.59
2022-09-26T20:44:27.213Z,16.52
2022-09-26T20:51:29.966Z,16.37
2022-09-26T20:58:31.556Z,16.39
2022-09-26T21:05:33.145Z,16.37
2022-09-26T21:12:34.793Z,16.35
2022-09-26T21:19:36.453Z,16.31
2022-09-26T21:26:52.145Z,16.29
2022-09-26T21:33:54.679Z,16.19
2022-09-26T21:40:57.884Z,16.29
2022-09-26T21:47:59.607Z,16.17
2022-09-26T21:55:01.206Z,16.06
2022-09-26T22:02:02.846Z,16.02
2022-09-26T22:09:04.593Z,15.91
2022-09-26T22:16:12.870Z,16.00
2022-09-26T22:23:14.565Z,16.00
2022-09-26T22:30:16.273Z,15.94
2022-09-26T22:37:17.997Z,15.94
2022-09-26T22:44:19.964Z,15.90
2022-09-26T22:51:21.544Z,15.83
2022-09-26T22:58:23.417Z,15.79
2022-09-26T23:05:24.994Z,15.87
2022-09-26T23:12:26.616Z,15.80
2022-09-26T23:19:28.275Z,15.65
2022-09-26T23:26:31.509Z,15.66
2022-09-26T23:33:33.108Z,15.58
2022-09-26T23:40:36.681Z,15.56
2022-09-26T23:47:38.367Z,15.50
2022-09-26T23:54:39.977Z,15.55
